KDGW/DGW METAR and TAF weather

Enter ICAO airport designator
Station Type Date Time Source
KDGW METAR 2021/03/06 01:53 UTC NOAA

KDGW 060153Z AUTO 25009KT 10SM CLR 06/M09 A3021 RMK AO2 SLP252 T00611094 $


Station Type Date Time Source
KDGW Decoded METAR 2021/03/06 01:53 UTC NOAA

DOUGLAS CONVERSE COUNTY, WY, United States (KDGW) 42-48N 105-23W 1499M
Mar 05, 2021 - 08:53 PM EST / 2021.03.06 0153 UTC
Wind: from the WSW (250 degrees) at 10 MPH (9 KT):0
Visibility: 10 mile(s):0
Sky conditions: clear
Temperature: 43.0 F (6.1 C)
Dew Point: 15.1 F (-9.4 C)
Relative Humidity: 31%
Pressure (altimeter): 30.21 in. Hg (1023 hPa)
ob: KDGW 060153Z AUTO 25009KT 10SM CLR 06/M09 A3021 RMK AO2 SLP252 T00611094
cycle: 2

Station Type Date Time Source
KDGW TAF UTC NOAA

Error!

Example: see airport list